sensor_id;sensor_type;location;lat;lon;timestamp;temperature;humidity
3312;DHT22;1668;49.648;8.570;2022-07-29T00:00:14;22.90;57.10
3312;DHT22;1668;49.648;8.570;2022-07-29T00:02:40;22.90;56.80
3312;DHT22;1668;49.648;8.570;2022-07-29T00:05:08;22.80;57.10
3312;DHT22;1668;49.648;8.570;2022-07-29T00:07:40;22.80;57.20
3312;DHT22;1668;49.648;8.570;2022-07-29T00:10:08;22.80;57.30
3312;DHT22;1668;49.648;8.570;2022-07-29T00:12:35;22.80;58.20
3312;DHT22;1668;49.648;8.570;2022-07-29T00:15:02;22.70;58.50
3312;DHT22;1668;49.648;8.570;2022-07-29T00:17:29;22.70;58.30
3312;DHT22;1668;49.648;8.570;2022-07-29T00:19:56;22.70;58.70
3312;DHT22;1668;49.648;8.570;2022-07-29T00:22:23;22.60;59.20
3312;DHT22;1668;49.648;8.570;2022-07-29T00:24:52;22.50;58.40
3312;DHT22;1668;49.648;8.570;2022-07-29T00:27:18;22.40;58.50
3312;DHT22;1668;49.648;8.570;2022-07-29T00:29:45;22.20;58.40
3312;DHT22;1668;49.648;8.570;2022-07-29T00:32:12;22.10;59.30
3312;DHT22;1668;49.648;8.570;2022-07-29T00:34:39;22.10;58.80
3312;DHT22;1668;49.648;8.570;2022-07-29T00:37:24;22.00;58.70
3312;DHT22;1668;49.648;8.570;2022-07-29T00:39:52;21.90;58.90
3312;DHT22;1668;49.648;8.570;2022-07-29T00:42:19;22.00;59.10
3312;DHT22;1668;49.648;8.570;2022-07-29T00:44:46;22.00;59.20
3312;DHT22;1668;49.648;8.570;2022-07-29T00:47:13;22.10;59.30
3312;DHT22;1668;49.648;8.570;2022-07-29T00:49:41;22.00;58.40
3312;DHT22;1668;49.648;8.570;2022-07-29T00:52:09;21.80;58.40
3312;DHT22;1668;49.648;8.570;2022-07-29T00:54:38;21.80;58.30
3312;DHT22;1668;49.648;8.570;2022-07-29T00:57:07;21.80;59.80
3312;DHT22;1668;49.648;8.570;2022-07-29T00:59:34;21.80;58.60
3312;DHT22;1668;49.648;8.570;2022-07-29T01:02:02;21.80;59.40
3312;DHT22;1668;49.648;8.570;2022-07-29T01:04:29;21.80;58.60
3312;DHT22;1668;49.648;8.570;2022-07-29T01:06:57;21.80;59.00
3312;DHT22;1668;49.648;8.570;2022-07-29T01:09:24;21.80;59.60
3312;DHT22;1668;49.648;8.570;2022-07-29T01:11:52;21.80;59.20
3312;DHT22;1668;49.648;8.570;2022-07-29T01:14:21;21.70;58.80
3312;DHT22;1668;49.648;8.570;2022-07-29T01:16:53;21.70;59.20
3312;DHT22;1668;49.648;8.570;2022-07-29T01:19:44;21.60;59.60
3312;DHT22;1668;49.648;8.570;2022-07-29T01:22:31;21.50;60.10
3312;DHT22;1668;49.648;8.570;2022-07-29T01:25:39;21.50;60.60
3312;DHT22;1668;49.648;8.570;2022-07-29T01:28:39;21.50;61.80
3312;DHT22;1668;49.648;8.570;2022-07-29T01:31:07;21.40;61.50
3312;DHT22;1668;49.648;8.570;2022-07-29T01:33:41;21.40;62.20
3312;DHT22;1668;49.648;8.570;2022-07-29T01:36:21;21.30;62.60
3312;DHT22;1668;49.648;8.570;2022-07-29T01:38:54;21.30;63.30
3312;DHT22;1668;49.648;8.570;2022-07-29T01:41:25;21.20;63.50
3312;DHT22;1668;49.648;8.570;2022-07-29T01:43:58;21.10;64.10
3312;DHT22;1668;49.648;8.570;2022-07-29T01:46:33;21.00;64.50
3312;DHT22;1668;49.648;8.570;2022-07-29T01:49:05;21.10;65.30
3312;DHT22;1668;49.648;8.570;2022-07-29T01:51:40;21.10;65.20
3312;DHT22;1668;49.648;8.570;2022-07-29T01:54:10;21.10;65.30
3312;DHT22;1668;49.648;8.570;2022-07-29T01:56:39;21.00;65.80
3312;DHT22;1668;49.648;8.570;2022-07-29T01:59:09;21.00;66.70
3312;DHT22;1668;49.648;8.570;2022-07-29T02:01:37;20.90;66.80
3312;DHT22;1668;49.648;8.570;2022-07-29T02:04:08;20.80;67.60
3312;DHT22;1668;49.648;8.570;2022-07-29T02:06:38;20.70;68.30
3312;DHT22;1668;49.648;8.570;2022-07-29T02:09:07;20.70;68.40
3312;DHT22;1668;49.648;8.570;2022-07-29T02:11:35;20.70;68.90
3312;DHT22;1668;49.648;8.570;2022-07-29T02:14:04;20.60;69.10
3312;DHT22;1668;49.648;8.570;2022-07-29T02:16:33;20.60;69.40
3312;DHT22;1668;49.648;8.570;2022-07-29T02:19:03;20.60;69.90
3312;DHT22;1668;49.648;8.570;2022-07-29T02:21:32;20.60;71.10
3312;DHT22;1668;49.648;8.570;2022-07-29T02:24:01;20.70;70.50
3312;DHT22;1668;49.648;8.570;2022-07-29T02:26:30;20.70;71.00
3312;DHT22;1668;49.648;8.570;2022-07-29T02:29:00;20.70;71.60
3312;DHT22;1668;49.648;8.570;2022-07-29T02:31:31;20.70;71.60
3312;DHT22;1668;49.648;8.570;2022-07-29T02:34:02;20.70;71.30
3312;DHT22;1668;49.648;8.570;2022-07-29T02:36:30;20.70;71.70
3312;DHT22;1668;49.648;8.570;2022-07-29T02:38:58;20.70;71.40
3312;DHT22;1668;49.648;8.570;2022-07-29T02:41:30;20.60;72.80
3312;DHT22;1668;49.648;8.570;2022-07-29T02:44:02;20.60;73.00
3312;DHT22;1668;49.648;8.570;2022-07-29T02:46:32;20.60;72.60
3312;DHT22;1668;49.648;8.570;2022-07-29T02:49:09;20.60;73.20
3312;DHT22;1668;49.648;8.570;2022-07-29T02:51:41;20.60;73.40
3312;DHT22;1668;49.648;8.570;2022-07-29T02:54:10;20.60;73.10
3312;DHT22;1668;49.648;8.570;2022-07-29T02:56:39;20.60;73.20
3312;DHT22;1668;49.648;8.570;2022-07-29T02:59:10;20.60;73.70
3312;DHT22;1668;49.648;8.570;2022-07-29T03:01:41;20.60;73.50
3312;DHT22;1668;49.648;8.570;2022-07-29T03:04:12;20.50;73.90
3312;DHT22;1668;49.648;8.570;2022-07-29T03:06:41;20.50;73.70
3312;DHT22;1668;49.648;8.570;2022-07-29T03:09:10;20.50;73.40
3312;DHT22;1668;49.648;8.570;2022-07-29T03:11:39;20.50;73.20
3312;DHT22;1668;49.648;8.570;2022-07-29T03:14:06;20.50;73.70
3312;DHT22;1668;49.648;8.570;2022-07-29T03:16:34;20.50;73.10
3312;DHT22;1668;49.648;8.570;2022-07-29T03:19:03;20.50;72.70
3312;DHT22;1668;49.648;8.570;2022-07-29T03:21:32;20.50;73.00
3312;DHT22;1668;49.648;8.570;2022-07-29T03:24:00;20.40;72.80
3312;DHT22;1668;49.648;8.570;2022-07-29T03:26:27;20.50;72.80
3312;DHT22;1668;49.648;8.570;2022-07-29T03:28:54;20.40;72.40
3312;DHT22;1668;49.648;8.570;2022-07-29T03:31:21;20.40;72.00
3312;DHT22;1668;49.648;8.570;2022-07-29T03:33:48;20.50;72.60
3312;DHT22;1668;49.648;8.570;2022-07-29T03:36:15;20.40;72.30
3312;DHT22;1668;49.648;8.570;2022-07-29T03:38:44;20.40;71.90
3312;DHT22;1668;49.648;8.570;2022-07-29T03:41:13;20.40;72.20
3312;DHT22;1668;49.648;8.570;2022-07-29T03:43:41;20.40;73.70
3312;DHT22;1668;49.648;8.570;2022-07-29T03:46:10;20.40;73.80
3312;DHT22;1668;49.648;8.570;2022-07-29T03:48:42;20.40;73.80
3312;DHT22;1668;49.648;8.570;2022-07-29T03:51:10;20.40;73.20
3312;DHT22;1668;49.648;8.570;2022-07-29T03:53:37;20.40;72.60
3312;DHT22;1668;49.648;8.570;2022-07-29T03:56:06;20.40;72.40
3312;DHT22;1668;49.648;8.570;2022-07-29T03:58:34;20.30;73.20
3312;DHT22;1668;49.648;8.570;2022-07-29T04:01:02;20.30;73.40
3312;DHT22;1668;49.648;8.570;2022-07-29T04:03:29;20.30;74.00
3312;DHT22;1668;49.648;8.570;2022-07-29T04:06:01;20.20;73.30
3312;DHT22;1668;49.648;8.570;2022-07-29T04:08:28;20.20;74.10
3312;DHT22;1668;49.648;8.570;2022-07-29T04:10:55;20.20;73.40
3312;DHT22;1668;49.648;8.570;2022-07-29T04:13:23;20.20;73.60
3312;DHT22;1668;49.648;8.570;2022-07-29T04:15:50;20.20;73.10
3312;DHT22;1668;49.648;8.570;2022-07-29T04:18:17;20.20;72.40
3312;DHT22;1668;49.648;8.570;2022-07-29T04:20:44;20.20;71.20
3312;DHT22;1668;49.648;8.570;2022-07-29T04:23:11;20.20;71.40
3312;DHT22;1668;49.648;8.570;2022-07-29T04:25:38;20.20;71.80
3312;DHT22;1668;49.648;8.570;2022-07-29T04:28:06;20.20;71.40
3312;DHT22;1668;49.648;8.570;2022-07-29T04:30:35;20.20;71.50
3312;DHT22;1668;49.648;8.570;2022-07-29T04:33:04;20.20;71.60
3312;DHT22;1668;49.648;8.570;2022-07-29T04:35:35;20.20;71.30
3312;DHT22;1668;49.648;8.570;2022-07-29T04:38:03;20.20;71.00
3312;DHT22;1668;49.648;8.570;2022-07-29T04:40:30;20.20;71.60
3312;DHT22;1668;49.648;8.570;2022-07-29T04:42:59;20.20;71.50
3312;DHT22;1668;49.648;8.570;2022-07-29T04:45:26;20.20;71.50
3312;DHT22;1668;49.648;8.570;2022-07-29T04:47:54;20.20;72.30
3312;DHT22;1668;49.648;8.570;2022-07-29T04:50:21;20.20;72.70
3312;DHT22;1668;49.648;8.570;2022-07-29T04:52:48;20.20;73.50
3312;DHT22;1668;49.648;8.570;2022-07-29T04:55:15;20.20;74.60
3312;DHT22;1668;49.648;8.570;2022-07-29T04:57:42;20.20;75.00
3312;DHT22;1668;49.648;8.570;2022-07-29T05:00:10;20.20;74.90
3312;DHT22;1668;49.648;8.570;2022-07-29T05:02:38;20.30;74.60
3312;DHT22;1668;49.648;8.570;2022-07-29T05:05:07;20.20;74.40
3312;DHT22;1668;49.648;8.570;2022-07-29T05:07:34;20.30;75.30
3312;DHT22;1668;49.648;8.570;2022-07-29T05:10:01;20.30;75.80
3312;DHT22;1668;49.648;8.570;2022-07-29T05:12:28;20.30;75.90
3312;DHT22;1668;49.648;8.570;2022-07-29T05:14:55;20.30;76.20
3312;DHT22;1668;49.648;8.570;2022-07-29T05:17:22;20.30;76.60
3312;DHT22;1668;49.648;8.570;2022-07-29T05:19:49;20.30;75.90
3312;DHT22;1668;49.648;8.570;2022-07-29T05:22:18;20.30;76.20
3312;DHT22;1668;49.648;8.570;2022-07-29T05:24:45;20.40;79.60
3312;DHT22;1668;49.648;8.570;2022-07-29T05:27:12;20.40;76.50
3312;DHT22;1668;49.648;8.570;2022-07-29T05:29:39;20.40;76.80
3312;DHT22;1668;49.648;8.570;2022-07-29T05:32:06;20.40;76.80
3312;DHT22;1668;49.648;8.570;2022-07-29T05:34:33;20.40;77.10
3312;DHT22;1668;49.648;8.570;2022-07-29T05:37:00;20.50;76.30
3312;DHT22;1668;49.648;8.570;2022-07-29T05:39:29;20.50;78.80
3312;DHT22;1668;49.648;8.570;2022-07-29T05:41:56;20.50;77.20
3312;DHT22;1668;49.648;8.570;2022-07-29T05:44:22;20.60;76.90
3312;DHT22;1668;49.648;8.570;2022-07-29T05:46:49;20.60;76.60
3312;DHT22;1668;49.648;8.570;2022-07-29T05:49:16;20.70;76.80
3312;DHT22;1668;49.648;8.570;2022-07-29T05:51:43;20.70;76.30
3312;DHT22;1668;49.648;8.570;2022-07-29T05:54:11;20.70;77.80
3312;DHT22;1668;49.648;8.570;2022-07-29T05:56:39;20.80;76.80
3312;DHT22;1668;49.648;8.570;2022-07-29T05:59:06;20.80;77.50
3312;DHT22;1668;49.648;8.570;2022-07-29T06:01:33;20.80;77.20
3312;DHT22;1668;49.648;8.570;2022-07-29T06:04:05;20.90;77.00
3312;DHT22;1668;49.648;8.570;2022-07-29T06:06:32;21.00;77.80
3312;DHT22;1668;49.648;8.570;2022-07-29T06:08:59;21.00;77.10
3312;DHT22;1668;49.648;8.570;2022-07-29T06:11:26;21.10;79.00
3312;DHT22;1668;49.648;8.570;2022-07-29T06:13:54;21.10;78.60
3312;DHT22;1668;49.648;8.570;2022-07-29T06:16:21;21.10;78.30
3312;DHT22;1668;49.648;8.570;2022-07-29T06:18:48;21.10;78.20
3312;DHT22;1668;49.648;8.570;2022-07-29T06:21:15;21.10;78.50
3312;DHT22;1668;49.648;8.570;2022-07-29T06:23:42;21.10;79.30
3312;DHT22;1668;49.648;8.570;2022-07-29T06:26:09;21.20;80.00
3312;DHT22;1668;49.648;8.570;2022-07-29T06:28:36;21.30;80.50
3312;DHT22;1668;49.648;8.570;2022-07-29T06:31:05;21.40;80.20
3312;DHT22;1668;49.648;8.570;2022-07-29T06:33:32;21.50;81.10
3312;DHT22;1668;49.648;8.570;2022-07-29T06:35:59;21.50;84.40
3312;DHT22;1668;49.648;8.570;2022-07-29T06:38:26;21.60;83.90
3312;DHT22;1668;49.648;8.570;2022-07-29T06:40:53;21.70;85.60
3312;DHT22;1668;49.648;8.570;2022-07-29T06:43:31;21.70;84.50
3312;DHT22;1668;49.648;8.570;2022-07-29T06:46:00;21.80;90.20
3312;DHT22;1668;49.648;8.570;2022-07-29T06:48:29;21.80;89.30
3312;DHT22;1668;49.648;8.570;2022-07-29T06:50:56;21.90;88.10
3312;DHT22;1668;49.648;8.570;2022-07-29T06:53:23;21.90;90.60
3312;DHT22;1668;49.648;8.570;2022-07-29T06:55:51;22.00;92.00
3312;DHT22;1668;49.648;8.570;2022-07-29T06:58:18;22.00;90.50
3312;DHT22;1668;49.648;8.570;2022-07-29T07:00:46;22.10;93.80
3312;DHT22;1668;49.648;8.570;2022-07-29T07:03:13;22.10;93.20
3312;DHT22;1668;49.648;8.570;2022-07-29T07:05:42;22.20;96.00
3312;DHT22;1668;49.648;8.570;2022-07-29T07:08:09;22.20;95.30
3312;DHT22;1668;49.648;8.570;2022-07-29T07:10:36;22.30;97.40
3312;DHT22;1668;49.648;8.570;2022-07-29T07:13:04;22.40;98.80
3312;DHT22;1668;49.648;8.570;2022-07-29T07:15:32;22.40;97.50
3312;DHT22;1668;49.648;8.570;2022-07-29T07:17:59;22.40;97.70
3312;DHT22;1668;49.648;8.570;2022-07-29T07:20:26;22.50;99.00
3312;DHT22;1668;49.648;8.570;2022-07-29T07:22:54;22.50;98.80
3312;DHT22;1668;49.648;8.570;2022-07-29T07:25:21;22.60;99.50
3312;DHT22;1668;49.648;8.570;2022-07-29T07:27:48;22.60;98.90
3312;DHT22;1668;49.648;8.570;2022-07-29T07:30:15;22.60;99.10
3312;DHT22;1668;49.648;8.570;2022-07-29T07:32:42;22.50;99.40
3312;DHT22;1668;49.648;8.570;2022-07-29T07:35:10;22.60;98.70
3312;DHT22;1668;49.648;8.570;2022-07-29T07:37:38;22.60;98.80
3312;DHT22;1668;49.648;8.570;2022-07-29T07:40:09;22.60;99.00
3312;DHT22;1668;49.648;8.570;2022-07-29T07:42:37;22.60;97.50
3312;DHT22;1668;49.648;8.570;2022-07-29T07:45:05;22.70;97.90
3312;DHT22;1668;49.648;8.570;2022-07-29T07:47:32;22.80;99.90
3312;DHT22;1668;49.648;8.570;2022-07-29T07:49:59;22.80;97.50
3312;DHT22;1668;49.648;8.570;2022-07-29T07:52:26;22.90;98.60
3312;DHT22;1668;49.648;8.570;2022-07-29T07:54:53;22.90;96.00
3312;DHT22;1668;49.648;8.570;2022-07-29T07:57:22;23.00;97.20
3312;DHT22;1668;49.648;8.570;2022-07-29T07:59:48;23.00;96.20
3312;DHT22;1668;49.648;8.570;2022-07-29T08:02:16;23.00;96.20
3312;DHT22;1668;49.648;8.570;2022-07-29T08:04:43;23.00;97.60
3312;DHT22;1668;49.648;8.570;2022-07-29T08:07:10;23.00;96.60
3312;DHT22;1668;49.648;8.570;2022-07-29T08:09:37;23.00;96.20
3312;DHT22;1668;49.648;8.570;2022-07-29T08:12:04;23.00;96.90
3312;DHT22;1668;49.648;8.570;2022-07-29T08:14:33;23.10;96.50
3312;DHT22;1668;49.648;8.570;2022-07-29T08:17:00;23.20;96.40
3312;DHT22;1668;49.648;8.570;2022-07-29T08:19:27;23.30;94.20
3312;DHT22;1668;49.648;8.570;2022-07-29T08:21:54;23.30;93.10
3312;DHT22;1668;49.648;8.570;2022-07-29T08:24:21;23.30;92.70
3312;DHT22;1668;49.648;8.570;2022-07-29T08:27:06;23.30;91.80
3312;DHT22;1668;49.648;8.570;2022-07-29T08:29:35;23.40;91.50
3312;DHT22;1668;49.648;8.570;2022-07-29T08:32:04;23.50;91.30
3312;DHT22;1668;49.648;8.570;2022-07-29T08:34:31;23.60;91.20
3312;DHT22;1668;49.648;8.570;2022-07-29T08:36:58;23.70;91.00
3312;DHT22;1668;49.648;8.570;2022-07-29T08:39:25;23.80;90.90
3312;DHT22;1668;49.648;8.570;2022-07-29T08:41:52;23.70;91.20
3312;DHT22;1668;49.648;8.570;2022-07-29T08:44:20;23.80;90.60
3312;DHT22;1668;49.648;8.570;2022-07-29T08:46:49;23.80;90.90
3312;DHT22;1668;49.648;8.570;2022-07-29T08:49:16;23.90;91.40
3312;DHT22;1668;49.648;8.570;2022-07-29T08:51:43;24.00;91.60
3312;DHT22;1668;49.648;8.570;2022-07-29T08:54:11;24.10;91.20
3312;DHT22;1668;49.648;8.570;2022-07-29T08:56:43;24.10;91.20
3312;DHT22;1668;49.648;8.570;2022-07-29T08:59:11;24.10;91.10
3312;DHT22;1668;49.648;8.570;2022-07-29T09:01:39;24.30;91.00
3312;DHT22;1668;49.648;8.570;2022-07-29T09:04:11;24.30;90.60
3312;DHT22;1668;49.648;8.570;2022-07-29T09:06:42;24.40;90.90
3312;DHT22;1668;49.648;8.570;2022-07-29T09:09:10;24.40;90.90
3312;DHT22;1668;49.648;8.570;2022-07-29T09:11:37;24.40;91.10
3312;DHT22;1668;49.648;8.570;2022-07-29T09:14:04;24.40;91.40
3312;DHT22;1668;49.648;8.570;2022-07-29T09:16:50;24.40;91.10
3312;DHT22;1668;49.648;8.570;2022-07-29T09:19:28;24.40;90.90
3312;DHT22;1668;49.648;8.570;2022-07-29T09:21:56;24.40;91.80
3312;DHT22;1668;49.648;8.570;2022-07-29T09:24:36;24.40;90.90
3312;DHT22;1668;49.648;8.570;2022-07-29T09:27:12;24.50;90.60
3312;DHT22;1668;49.648;8.570;2022-07-29T09:29:44;24.50;90.60
3312;DHT22;1668;49.648;8.570;2022-07-29T09:32:11;24.60;90.50
3312;DHT22;1668;49.648;8.570;2022-07-29T09:34:39;24.60;89.20
3312;DHT22;1668;49.648;8.570;2022-07-29T09:37:06;24.70;88.80
3312;DHT22;1668;49.648;8.570;2022-07-29T09:39:37;24.80;88.70
3312;DHT22;1668;49.648;8.570;2022-07-29T09:42:10;25.00;88.80
3312;DHT22;1668;49.648;8.570;2022-07-29T09:44:42;25.00;89.00
3312;DHT22;1668;49.648;8.570;2022-07-29T09:47:09;25.10;87.60
3312;DHT22;1668;49.648;8.570;2022-07-29T09:49:51;25.00;89.00
3312;DHT22;1668;49.648;8.570;2022-07-29T09:52:19;25.00;87.90
3312;DHT22;1668;49.648;8.570;2022-07-29T09:54:46;25.10;87.90
3312;DHT22;1668;49.648;8.570;2022-07-29T09:57:25;25.20;87.20
3312;DHT22;1668;49.648;8.570;2022-07-29T10:00:04;25.20;88.10
3312;DHT22;1668;49.648;8.570;2022-07-29T10:02:34;25.20;87.40
3312;DHT22;1668;49.648;8.570;2022-07-29T10:05:04;25.20;86.90
3312;DHT22;1668;49.648;8.570;2022-07-29T10:07:44;25.20;87.60
3312;DHT22;1668;49.648;8.570;2022-07-29T10:10:17;25.30;89.40
3312;DHT22;1668;49.648;8.570;2022-07-29T10:12:53;25.50;87.00
3312;DHT22;1668;49.648;8.570;2022-07-29T10:15:26;25.70;86.50
3312;DHT22;1668;49.648;8.570;2022-07-29T10:17:55;25.80;85.90
3312;DHT22;1668;49.648;8.570;2022-07-29T10:20:24;25.90;87.00
3312;DHT22;1668;49.648;8.570;2022-07-29T10:22:52;26.00;84.60
3312;DHT22;1668;49.648;8.570;2022-07-29T10:25:19;26.00;84.10
3312;DHT22;1668;49.648;8.570;2022-07-29T10:27:48;26.10;86.00
3312;DHT22;1668;49.648;8.570;2022-07-29T10:30:17;26.10;84.30
3312;DHT22;1668;49.648;8.570;2022-07-29T10:33:15;26.20;84.00
3312;DHT22;1668;49.648;8.570;2022-07-29T10:35:59;26.30;84.60
3312;DHT22;1668;49.648;8.570;2022-07-29T10:38:44;26.40;83.50
3312;DHT22;1668;49.648;8.570;2022-07-29T10:41:23;26.70;82.90
3312;DHT22;1668;49.648;8.570;2022-07-29T10:43:55;26.80;82.20
3312;DHT22;1668;49.648;8.570;2022-07-29T10:46:23;26.80;82.30
3312;DHT22;1668;49.648;8.570;2022-07-29T10:49:08;26.90;81.90
3312;DHT22;1668;49.648;8.570;2022-07-29T10:51:54;27.10;81.90
3312;DHT22;1668;49.648;8.570;2022-07-29T10:54:43;27.10;82.60
3312;DHT22;1668;49.648;8.570;2022-07-29T10:57:25;27.10;80.60
3312;DHT22;1668;49.648;8.570;2022-07-29T11:00:30;27.10;80.60
3312;DHT22;1668;49.648;8.570;2022-07-29T11:02:57;27.10;80.20
3312;DHT22;1668;49.648;8.570;2022-07-29T11:05:24;27.20;80.20
3312;DHT22;1668;49.648;8.570;2022-07-29T11:08:22;27.30;80.50
3312;DHT22;1668;49.648;8.570;2022-07-29T11:11:31;27.40;79.30
3312;DHT22;1668;49.648;8.570;2022-07-29T11:13:58;27.40;79.10
3312;DHT22;1668;49.648;8.570;2022-07-29T11:16:25;27.40;79.00
3312;DHT22;1668;49.648;8.570;2022-07-29T11:19:19;27.50;79.30
3312;DHT22;1668;49.648;8.570;2022-07-29T11:21:46;27.60;80.40
3312;DHT22;1668;49.648;8.570;2022-07-29T11:24:18;27.80;78.20
3312;DHT22;1668;49.648;8.570;2022-07-29T11:27:09;27.90;78.50
3312;DHT22;1668;49.648;8.570;2022-07-29T11:29:39;28.10;78.70
3312;DHT22;1668;49.648;8.570;2022-07-29T11:32:11;28.00;77.60
3312;DHT22;1668;49.648;8.570;2022-07-29T11:34:39;28.10;76.00
3312;DHT22;1668;49.648;8.570;2022-07-29T11:37:23;28.20;76.90
3312;DHT22;1668;49.648;8.570;2022-07-29T11:40:17;28.40;75.70
3312;DHT22;1668;49.648;8.570;2022-07-29T11:42:46;28.70;73.50
3312;DHT22;1668;49.648;8.570;2022-07-29T11:45:44;28.80;73.90
3312;DHT22;1668;49.648;8.570;2022-07-29T11:48:16;29.00;73.00
3312;DHT22;1668;49.648;8.570;2022-07-29T11:50:43;28.90;72.50
3312;DHT22;1668;49.648;8.570;2022-07-29T11:53:12;28.90;70.40
3312;DHT22;1668;49.648;8.570;2022-07-29T11:55:41;29.00;71.40
3312;DHT22;1668;49.648;8.570;2022-07-29T11:58:08;29.20;72.60
3312;DHT22;1668;49.648;8.570;2022-07-29T12:00:37;29.40;71.30
3312;DHT22;1668;49.648;8.570;2022-07-29T12:03:06;29.30;69.20
3312;DHT22;1668;49.648;8.570;2022-07-29T12:05:36;29.20;69.10
3312;DHT22;1668;49.648;8.570;2022-07-29T12:08:11;29.40;69.00
3312;DHT22;1668;49.648;8.570;2022-07-29T12:10:40;29.70;68.50
3312;DHT22;1668;49.648;8.570;2022-07-29T12:13:08;29.90;67.20
3312;DHT22;1668;49.648;8.570;2022-07-29T12:15:36;30.00;66.50
3312;DHT22;1668;49.648;8.570;2022-07-29T12:18:10;30.00;65.80
3312;DHT22;1668;49.648;8.570;2022-07-29T12:20:37;29.90;65.30
3312;DHT22;1668;49.648;8.570;2022-07-29T12:23:08;29.90;66.00
3312;DHT22;1668;49.648;8.570;2022-07-29T12:25:38;29.80;64.40
3312;DHT22;1668;49.648;8.570;2022-07-29T12:28:10;29.90;64.10
3312;DHT22;1668;49.648;8.570;2022-07-29T12:30:43;30.00;64.40
3312;DHT22;1668;49.648;8.570;2022-07-29T12:33:12;30.00;62.50
3312;DHT22;1668;49.648;8.570;2022-07-29T12:35:40;30.00;62.60
3312;DHT22;1668;49.648;8.570;2022-07-29T12:38:10;30.20;61.90
3312;DHT22;1668;49.648;8.570;2022-07-29T12:40:37;30.30;62.70
3312;DHT22;1668;49.648;8.570;2022-07-29T12:43:13;30.40;62.00
3312;DHT22;1668;49.648;8.570;2022-07-29T12:45:42;30.50;59.20
3312;DHT22;1668;49.648;8.570;2022-07-29T12:48:09;30.50;59.60
3312;DHT22;1668;49.648;8.570;2022-07-29T12:50:52;30.40;58.10
3312;DHT22;1668;49.648;8.570;2022-07-29T12:53:19;30.30;58.90
3312;DHT22;1668;49.648;8.570;2022-07-29T12:55:48;30.30;57.70
3312;DHT22;1668;49.648;8.570;2022-07-29T12:58:32;30.30;59.00
3312;DHT22;1668;49.648;8.570;2022-07-29T13:01:06;30.30;57.70
3312;DHT22;1668;49.648;8.570;2022-07-29T13:03:47;30.30;57.40
3312;DHT22;1668;49.648;8.570;2022-07-29T13:06:31;30.20;58.80
3312;DHT22;1668;49.648;8.570;2022-07-29T13:09:00;30.20;58.30
3312;DHT22;1668;49.648;8.570;2022-07-29T13:11:28;30.20;57.80
3312;DHT22;1668;49.648;8.570;2022-07-29T13:13:57;30.20;58.30
3312;DHT22;1668;49.648;8.570;2022-07-29T13:16:24;30.30;58.70
3312;DHT22;1668;49.648;8.570;2022-07-29T13:19:04;30.40;57.20
3312;DHT22;1668;49.648;8.570;2022-07-29T13:21:31;30.70;56.90
3312;DHT22;1668;49.648;8.570;2022-07-29T13:23:58;30.70;57.10
3312;DHT22;1668;49.648;8.570;2022-07-29T13:26:25;30.80;55.20
3312;DHT22;1668;49.648;8.570;2022-07-29T13:28:53;31.00;55.10
3312;DHT22;1668;49.648;8.570;2022-07-29T13:31:22;31.00;56.10
3312;DHT22;1668;49.648;8.570;2022-07-29T13:33:49;30.80;52.50
3312;DHT22;1668;49.648;8.570;2022-07-29T13:36:16;30.60;51.80
3312;DHT22;1668;49.648;8.570;2022-07-29T13:38:43;30.50;52.30
3312;DHT22;1668;49.648;8.570;2022-07-29T13:41:10;30.50;49.90
3312;DHT22;1668;49.648;8.570;2022-07-29T13:43:37;30.50;49.80
3312;DHT22;1668;49.648;8.570;2022-07-29T13:46:04;30.60;54.90
3312;DHT22;1668;49.648;8.570;2022-07-29T13:48:32;30.70;56.50
3312;DHT22;1668;49.648;8.570;2022-07-29T13:50:59;30.70;54.30
3312;DHT22;1668;49.648;8.570;2022-07-29T13:53:26;30.70;54.90
3312;DHT22;1668;49.648;8.570;2022-07-29T13:55:54;30.90;53.80
3312;DHT22;1668;49.648;8.570;2022-07-29T13:58:21;30.90;53.40
3312;DHT22;1668;49.648;8.570;2022-07-29T14:00:48;30.70;54.00
3312;DHT22;1668;49.648;8.570;2022-07-29T14:03:15;30.80;53.60
3312;DHT22;1668;49.648;8.570;2022-07-29T14:05:44;30.60;53.30
3312;DHT22;1668;49.648;8.570;2022-07-29T14:08:11;30.50;53.30
3312;DHT22;1668;49.648;8.570;2022-07-29T14:10:37;30.50;54.00
3312;DHT22;1668;49.648;8.570;2022-07-29T14:13:04;30.40;53.80
3312;DHT22;1668;49.648;8.570;2022-07-29T14:15:31;30.40;52.70
3312;DHT22;1668;49.648;8.570;2022-07-29T14:17:58;30.40;53.10
3312;DHT22;1668;49.648;8.570;2022-07-29T14:20:25;30.40;53.60
3312;DHT22;1668;49.648;8.570;2022-07-29T14:22:55;30.40;55.30
3312;DHT22;1668;49.648;8.570;2022-07-29T14:25:22;30.30;53.90
3312;DHT22;1668;49.648;8.570;2022-07-29T14:27:49;30.30;53.20
3312;DHT22;1668;49.648;8.570;2022-07-29T14:30:16;30.30;53.30
3312;DHT22;1668;49.648;8.570;2022-07-29T14:32:44;30.30;53.20
3312;DHT22;1668;49.648;8.570;2022-07-29T14:35:11;30.30;53.30
3312;DHT22;1668;49.648;8.570;2022-07-29T14:37:38;30.30;53.10
3312;DHT22;1668;49.648;8.570;2022-07-29T14:40:08;30.30;52.60
3312;DHT22;1668;49.648;8.570;2022-07-29T14:42:36;30.10;52.40
3312;DHT22;1668;49.648;8.570;2022-07-29T14:45:04;30.00;52.30
3312;DHT22;1668;49.648;8.570;2022-07-29T14:47:31;30.10;52.20
3312;DHT22;1668;49.648;8.570;2022-07-29T14:49:58;30.10;53.70
3312;DHT22;1668;49.648;8.570;2022-07-29T14:52:25;30.20;52.10
3312;DHT22;1668;49.648;8.570;2022-07-29T14:54:52;30.40;52.30
3312;DHT22;1668;49.648;8.570;2022-07-29T14:57:20;30.40;51.80
3312;DHT22;1668;49.648;8.570;2022-07-29T14:59:48;30.40;52.10
3312;DHT22;1668;49.648;8.570;2022-07-29T15:02:16;30.40;51.30
3312;DHT22;1668;49.648;8.570;2022-07-29T15:04:43;30.30;51.30
3312;DHT22;1668;49.648;8.570;2022-07-29T15:07:11;30.30;51.40
3312;DHT22;1668;49.648;8.570;2022-07-29T15:09:38;30.30;50.80
3312;DHT22;1668;49.648;8.570;2022-07-29T15:12:06;30.20;51.80
3312;DHT22;1668;49.648;8.570;2022-07-29T15:14:34;30.20;51.80
3312;DHT22;1668;49.648;8.570;2022-07-29T15:17:01;30.10;51.30
3312;DHT22;1668;49.648;8.570;2022-07-29T15:19:28;30.00;51.60
3312;DHT22;1668;49.648;8.570;2022-07-29T15:21:55;29.90;51.00
3312;DHT22;1668;49.648;8.570;2022-07-29T15:24:22;29.90;52.20
3312;DHT22;1668;49.648;8.570;2022-07-29T15:26:49;30.00;51.80
3312;DHT22;1668;49.648;8.570;2022-07-29T15:29:17;29.90;52.50
3312;DHT22;1668;49.648;8.570;2022-07-29T15:31:45;30.10;52.00
3312;DHT22;1668;49.648;8.570;2022-07-29T15:34:12;30.20;50.90
3312;DHT22;1668;49.648;8.570;2022-07-29T15:36:39;30.30;50.00
3312;DHT22;1668;49.648;8.570;2022-07-29T15:39:06;30.30;50.30
3312;DHT22;1668;49.648;8.570;2022-07-29T15:41:34;30.30;49.40
3312;DHT22;1668;49.648;8.570;2022-07-29T15:44:01;30.20;49.10
3312;DHT22;1668;49.648;8.570;2022-07-29T15:46:28;30.20;49.70
3312;DHT22;1668;49.648;8.570;2022-07-29T15:49:14;30.20;49.50
3312;DHT22;1668;49.648;8.570;2022-07-29T15:51:41;30.20;49.50
3312;DHT22;1668;49.648;8.570;2022-07-29T15:54:08;30.10;49.00
3312;DHT22;1668;49.648;8.570;2022-07-29T15:56:35;30.10;48.80
3312;DHT22;1668;49.648;8.570;2022-07-29T15:59:02;30.00;48.10
3312;DHT22;1668;49.648;8.570;2022-07-29T16:01:28;30.00;48.30
3312;DHT22;1668;49.648;8.570;2022-07-29T16:03:57;30.00;48.60
3312;DHT22;1668;49.648;8.570;2022-07-29T16:06:25;29.90;49.60
3312;DHT22;1668;49.648;8.570;2022-07-29T16:08:52;30.00;50.70
3312;DHT22;1668;49.648;8.570;2022-07-29T16:11:20;29.90;51.30
3312;DHT22;1668;49.648;8.570;2022-07-29T16:13:47;30.00;51.60
3312;DHT22;1668;49.648;8.570;2022-07-29T16:16:14;29.90;51.60
3312;DHT22;1668;49.648;8.570;2022-07-29T16:18:43;29.50;66.40